This is the latest recevied weather packets stored in our database for station/object K3MV-13. If no packets are shown the sender has not sent any weather packets the latest 10 day(s).
| Time | Temp. | Humidity | Pressure | Rain* | Wind** | Luminosity | Snow |
|---|---|---|---|---|---|---|---|
| 1777822543 | 8.89° C | 45% | 1017.1 hPa | 0 mm | - | 784 W/m² | - |
| 1777822240 | 8.89° C | 46% | 1017 hPa | 0 mm | - | 772 W/m² | - |
| 1777821937 | 8.89° C | 50% | 1016.9 hPa | 0 mm | - | 764 W/m² | - |
| 1777821635 | 8.89° C | 50% | 1017 hPa | 0 mm | - | 751 W/m² | - |
| 1777821333 | 8.33° C | 49% | 1017 hPa | 0 mm | - | 742 W/m² | - |
| 1777821029 | 8.33° C | 46% | 1017.1 hPa | 0 mm | - | 735 W/m² | - |
| 1777820726 | 8.33° C | 46% | 1017 hPa | 0 mm | - | 738 W/m² | - |
| 1777820422 | 7.78° C | 51% | 1017.1 hPa | 0 mm | - | 731 W/m² | - |
| 1777820120 | 7.78° C | 49% | 1017.1 hPa | 0 mm | - | 736 W/m² | - |
| 1777819816 | 7.78° C | 50% | 1017.1 hPa | 0 mm | - | 713 W/m² | - |
| 1777819514 | 7.78° C | 46% | 1017.1 hPa | 0 mm | - | 717 W/m² | - |
| 1777819212 | 7.22° C | 53% | 1017.1 hPa | 0 mm | - | 749 W/m² | - |
| 1777818908 | 6.67° C | 52% | 1017.4 hPa | 0 mm | - | 683 W/m² | - |
| 1777818604 | 7.22° C | 54% | 1017.4 hPa | 0 mm | - | 299 W/m² | - |
| 1777818302 | 6.67° C | 51% | 1017.1 hPa | 0 mm | - | 699 W/m² | - |
| 1777817998 | 6.67° C | 53% | 1017.3 hPa | 0 mm | - | 94 W/m² | - |
| 1777817695 | 6.11° C | 56% | 1017.2 hPa | 0 mm | - | 178 W/m² | - |
| 1777817392 | 7.22° C | 52% | 1017.2 hPa | 0 mm | - | 165 W/m² | - |
| 1777817089 | 7.22° C | 52% | 1017.1 hPa | 0 mm | - | 676 W/m² | - |
| 1777816785 | 7.22° C | 56% | 1017.2 hPa | 0 mm | - | 600 W/m² | - |
| 1777816483 | 6.67° C | 56% | 1017.2 hPa | 0 mm | - | 591 W/m² | - |
| 1777816180 | 6.11° C | 56% | 1017.2 hPa | 0 mm | - | 550 W/m² | - |
| 1777815878 | 6.11° C | 60% | 1017.2 hPa | 0 mm | - | 576 W/m² | - |
| 1777815575 | 5.56° C | 62% | 1017.2 hPa | 0 mm | - | 531 W/m² | - |
| 1777815273 | 5.56° C | 59% | 1017.1 hPa | 0 mm | - | 512 W/m² | - |
* Rain latest hour (hover to see other rain measurements)
** Current wind speed in m/s (hover to see current wind gust speed)